Time;durP1;ratioP1;P1;durP2;ratioP2;P2;SDS_P1;SDS_P2;PMS_P1;PMS_P2;Temp;Humidity;BMP_temperature;BMP_pressure;BME280_temperature;BME280_humidity;BME280_pressure;Samples;Min_cycle;Max_cycle;Signal;HPM_P1;HPM_P2
2022/11/28 00:01:49;;;;;;;12.13;7.47;;;;;;;7.16;57.40;97627.72;5015336;28;20234;-83
2022/11/28 00:04:28;;;;;;;11.23;6.40;;;;;;;7.31;58.99;97634.25;5066658;28;20199;-79
2022/11/28 00:06:56;;;;;;;7.60;5.37;;;;;;;7.28;59.13;97645.47;5031922;28;20211;-79
2022/11/28 00:09:24;;;;;;;8.73;5.40;;;;;;;7.15;58.33;97607.16;5048554;28;20229;-78
2022/11/28 00:11:55;;;;;;;8.90;4.70;;;;;;;7.04;60.09;97598.81;5066406;28;20208;-78
2022/11/28 00:14:24;;;;;;;7.00;4.53;;;;;;;7.32;59.43;97644.50;5066418;28;20185;-78
2022/11/28 00:16:52;;;;;;;6.87;5.63;;;;;;;7.47;58.34;97645.88;5067160;28;20199;-80
2022/11/28 00:19:20;;;;;;;8.10;4.83;;;;;;;7.40;58.45;97641.75;5048830;28;20722;-81
2022/11/28 00:21:48;;;;;;;9.43;5.07;;;;;;;7.18;59.68;97650.84;5032717;28;20200;-79
2022/11/28 00:24:20;;;;;;;8.83;4.93;;;;;;;6.99;60.67;97655.56;5031572;28;20192;-79
2022/11/28 00:26:48;;;;;;;9.87;6.03;;;;;;;6.78;60.24;97616.59;5048481;28;20186;-80
2022/11/28 00:29:16;;;;;;;6.50;4.60;;;;;;;6.76;61.25;97655.19;5066134;28;20307;-78
2022/11/28 00:31:47;;;;;;;6.97;4.63;;;;;;;6.75;61.95;97657.81;5066000;28;20196;-78
2022/11/28 00:34:15;;;;;;;7.37;4.90;;;;;;;6.59;62.18;97658.13;5032161;28;20297;-78
2022/11/28 00:36:47;;;;;;;7.00;5.40;;;;;;;6.65;62.38;97648.59;5048597;28;20693;-79
2022/11/28 00:39:15;;;;;;;9.33;4.97;;;;;;;6.78;61.74;97642.31;5049498;28;20244;-79
2022/11/28 00:41:43;;;;;;;6.53;5.00;;;;;;;6.82;61.07;97649.09;5047998;28;20210;-79
2022/11/28 00:44:11;;;;;;;8.50;5.23;;;;;;;6.73;61.03;97646.72;5048731;28;20184;-78
2022/11/28 00:46:39;;;;;;;6.83;4.87;;;;;;;6.80;60.86;97641.38;5066028;28;20191;-80
2022/11/28 00:49:08;;;;;;;7.60;4.43;;;;;;;6.97;60.72;97638.44;5031296;28;20222;-78
2022/11/28 00:51:35;;;;;;;6.93;4.70;;;;;;;7.01;59.98;97640.06;5065802;28;20207;-77
2022/11/28 00:54:05;;;;;;;8.20;5.30;;;;;;;6.79;60.60;97638.84;5047590;28;20191;-77
2022/11/28 00:56:37;;;;;;;7.63;4.63;;;;;;;6.71;60.85;97605.56;5048978;28;20205;-78
2022/11/28 00:59:06;;;;;;;9.17;5.43;;;;;;;6.91;59.69;97636.00;5047761;28;20200;-79
2022/11/28 01:01:40;;;;;;;8.07;5.47;;;;;;;6.99;61.63;97640.13;5066390;28;20187;-80
2022/11/28 01:04:13;;;;;;;8.40;5.60;;;;;;;6.82;61.02;97636.22;5047301;28;20666;-80
2022/11/28 01:06:44;;;;;;;7.77;5.23;;;;;;;6.86;61.15;97630.13;5065085;28;20230;-80
2022/11/28 01:09:21;;;;;;;6.83;5.27;;;;;;;6.67;60.90;97598.81;5066078;28;20769;-81
2022/11/28 01:11:52;;;;;;;8.77;5.50;;;;;;;6.82;61.66;97641.38;5048813;28;20189;-80
2022/11/28 01:14:22;;;;;;;8.87;5.20;;;;;;;6.82;61.68;97620.78;5048943;28;20206;-81
2022/11/28 01:16:50;;;;;;;8.53;5.00;;;;;;;6.72;62.16;97616.72;5070148;28;20195;-80
2022/11/28 01:19:18;;;;;;;10.43;5.63;;;;;;;6.80;60.58;97628.53;5070145;28;20229;-80
2022/11/28 01:21:46;;;;;;;6.50;5.17;;;;;;;6.91;61.71;97630.88;5070261;28;20228;-81
2022/11/28 01:24:13;;;;;;;7.33;5.13;;;;;;;6.88;61.19;97620.66;5069584;28;20238;-80
2022/11/28 01:26:43;;;;;;;8.57;5.27;;;;;;;6.88;62.11;97633.53;5069751;28;20221;-81
2022/11/28 01:29:11;;;;;;;8.37;5.93;;;;;;;6.90;60.54;97613.75;5069133;28;20232;-80
2022/11/28 01:31:38;;;;;;;8.57;5.40;;;;;;;7.00;60.97;97628.09;5070318;28;20314;-81
2022/11/28 01:34:06;;;;;;;8.93;5.43;;;;;;;6.92;59.72;97614.56;5048530;28;20263;-80
2022/11/28 01:36:35;;;;;;;8.37;5.53;;;;;;;7.03;60.77;97622.88;5069743;28;20275;-81
2022/11/28 01:39:03;;;;;;;9.33;5.20;;;;;;;6.81;61.66;97611.34;5069829;28;20191;-82
2022/11/28 01:41:31;;;;;;;12.90;6.07;;;;;;;6.55;61.45;97599.88;5069307;28;20693;-81
2022/11/28 01:44:01;;;;;;;11.73;6.13;;;;;;;6.46;61.95;97612.97;5052216;28;20209;-82
2022/11/28 01:46:29;;;;;;;10.47;5.13;;;;;;;6.38;63.12;97612.28;5069495;28;20188;-83
2022/11/28 01:49:01;;;;;;;10.17;5.77;;;;;;;6.44;61.64;97614.72;5051882;28;20310;-81
2022/11/28 01:51:33;;;;;;;8.60;6.10;;;;;;;6.54;61.71;97600.78;5069049;28;20213;-82
2022/11/28 01:54:02;;;;;;;9.47;6.23;;;;;;;6.70;61.17;97610.75;5069671;28;20190;-82
2022/11/28 01:56:42;;;;;;;9.97;6.00;;;;;;;6.76;60.05;97608.06;5069478;28;20645;-82
2022/11/28 01:59:10;;;;;;;8.33;5.60;;;;;;;6.87;60.32;97606.94;5050862;28;20732;-82
2022/11/28 02:01:45;;;;;;;8.80;6.10;;;;;;;6.86;60.49;97610.38;5069788;28;20195;-83
2022/11/28 02:04:13;;;;;;;10.93;5.80;;;;;;;6.82;60.39;97597.63;5035172;28;20680;-82
2022/11/28 02:06:44;;;;;;;11.00;6.10;;;;;;;6.67;61.81;97597.94;5069362;28;20223;-82
2022/11/28 02:09:14;;;;;;;9.70;6.37;;;;;;;6.72;61.51;97596.13;5069011;28;20226;-82
2022/11/28 02:11:45;;;;;;;10.50;6.03;;;;;;;6.94;61.41;97599.91;5051046;28;20190;-82
2022/11/28 02:14:48;;;;;;;11.13;6.70;;;;;;;6.99;60.84;97600.63;5069085;28;20186;-82
2022/11/28 02:17:26;;;;;;;11.63;6.20;;;;;;;7.04;60.85;97593.69;5050721;28;20328;-83
2022/11/28 02:20:12;;;;;;;11.53;6.60;;;;;;;7.05;60.20;97595.34;5068974;28;20203;-82
2022/11/28 02:23:28;;;;;;;9.43;6.27;;;;;;;7.00;60.02;97597.19;5051055;28;20332;-81
2022/11/28 02:26:13;;;;;;;11.97;6.60;;;;;;;6.91;61.10;97594.81;5046734;28;20758;-82
2022/11/28 02:28:50;;;;;;;9.30;6.57;;;;;;;7.00;62.24;97586.91;5051693;28;20548;-82
2022/11/28 02:31:56;;;;;;;10.37;6.80;;;;;;;7.06;60.85;97592.75;5052122;28;20199;-80
2022/11/28 02:35:03;;;;;;;11.83;6.90;;;;;;;6.96;61.27;97595.59;5050154;28;20206;-83
2022/11/28 02:37:32;;;;;;;9.10;6.03;;;;;;;6.87;62.21;97591.47;5069028;28;20201;-83
2022/11/28 02:40:22;;;;;;;9.13;6.93;;;;;;;7.00;61.34;97603.22;5068814;28;20198;-80
2022/11/28 02:43:07;;;;;;;12.23;6.50;;;;;;;6.87;61.59;97585.47;5050132;28;20237;-80
2022/11/28 02:46:00;;;;;;;11.33;7.00;;;;;;;6.93;60.91;97582.75;5052152;28;20619;-81
2022/11/28 02:48:48;;;;;;;10.47;6.93;;;;;;;7.01;61.14;97588.56;5068269;28;20229;-81
2022/11/28 02:51:35;;;;;;;12.10;7.43;;;;;;;7.04;60.54;97588.53;5069625;28;20190;-81
2022/11/28 02:54:07;;;;;;;12.53;8.30;;;;;;;7.03;61.04;97577.38;5036376;28;20660;-80
2022/11/28 02:56:39;;;;;;;12.70;7.03;;;;;;;7.09;60.09;97590.09;5074040;28;20190;-80
2022/11/28 02:59:24;;;;;;;14.67;7.87;;;;;;;7.00;60.17;97571.47;5069131;28;20648;-79
2022/11/28 03:01:55;;;;;;;10.47;6.37;;;;;;;7.08;61.08;97596.16;5068951;28;20184;-80
2022/11/28 03:04:39;;;;;;;12.00;7.43;;;;;;;6.97;62.59;97587.81;5068257;28;20582;-79
2022/11/28 03:07:15;;;;;;;10.77;6.63;;;;;;;6.99;61.74;97591.19;5068555;28;20223;-79
2022/11/28 03:10:02;;;;;;;10.23;6.70;;;;;;;7.00;62.04;97592.91;5049763;28;20238;-80
2022/11/28 03:12:45;;;;;;;13.23;7.10;;;;;;;6.98;62.05;97580.94;5049966;28;20188;-80
2022/11/28 03:15:18;;;;;;;9.37;6.20;;;;;;;7.05;61.99;97580.75;5050127;28;20475;-80
2022/11/28 03:17:52;;;;;;;11.50;7.13;;;;;;;7.07;61.64;97597.03;5067402;28;20195;-79
2022/11/28 03:20:58;;;;;;;14.43;7.57;;;;;;;6.96;63.05;97590.44;5050224;28;20241;-80
2022/11/28 03:23:37;;;;;;;13.80;8.00;;;;;;;7.06;62.43;97594.47;5032938;28;20639;-82
2022/11/28 03:26:39;;;;;;;15.27;8.77;;;;;;;6.93;62.17;97581.03;5049758;28;20601;-81
2022/11/28 03:29:18;;;;;;;10.37;6.73;;;;;;;6.77;63.83;97594.28;5049778;28;20318;-82
2022/11/28 03:31:57;;;;;;;15.60;8.50;;;;;;;6.86;62.72;97604.41;5050829;28;20594;-80
2022/11/28 03:34:32;;;;;;;14.23;8.07;;;;;;;6.86;63.26;97602.63;5067477;28;20223;-81
2022/11/28 03:37:17;;;;;;;13.83;8.37;;;;;;;6.59;63.52;97578.34;5061094;28;20244;-81
2022/11/28 03:39:52;;;;;;;14.07;8.77;;;;;;;6.89;64.80;97600.00;5052480;28;20292;-81
2022/11/28 03:42:24;;;;;;;13.43;8.03;;;;;;;6.78;65.05;97593.44;5054243;28;20191;-81
2022/11/28 03:45:08;;;;;;;9.63;6.70;;;;;;;6.91;64.85;97599.97;5070172;28;20193;-81
2022/11/28 03:47:43;;;;;;;9.77;6.40;;;;;;;6.87;65.69;97616.38;5087742;28;20196;-80
2022/11/28 03:50:29;;;;;;;8.83;5.43;;;;;;;6.81;64.93;97590.75;5088105;28;20228;-81
2022/11/28 03:53:03;;;;;;;8.97;6.03;;;;;;;6.84;65.68;97606.97;5087185;28;20206;-81
2022/11/28 03:55:41;;;;;;;9.57;6.50;;;;;;;6.77;66.53;97609.72;5087660;28;20696;-81
2022/11/28 03:58:53;;;;;;;8.63;5.67;;;;;;;6.75;65.78;97607.19;5086904;28;20267;-80
2022/11/28 04:01:46;;;;;;;8.67;6.03;;;;;;;6.69;67.28;97612.47;4985275;28;20194;-81
2022/11/28 04:04:46;;;;;;;11.33;7.13;;;;;;;6.81;67.85;97611.34;5070404;28;20199;-82
2022/11/28 04:07:33;;;;;;;10.63;7.00;;;;;;;6.58;69.14;97594.69;5088031;28;20551;-81
2022/11/28 04:10:31;;;;;;;10.33;6.80;;;;;;;6.47;69.91;97617.22;5086855;28;20232;-82
2022/11/28 04:13:01;;;;;;;11.13;6.80;;;;;;;6.56;68.68;97609.31;5068550;28;20218;-80
2022/11/28 04:15:47;;;;;;;9.60;6.23;;;;;;;6.67;69.78;97613.38;5086456;28;20205;-80
2022/11/28 04:18:19;;;;;;;10.10;6.90;;;;;;;6.78;69.34;97619.16;5086558;28;20187;-80
2022/11/28 04:20:59;;;;;;;9.93;6.90;;;;;;;6.78;69.45;97616.59;5087574;28;20191;-80
2022/11/28 04:23:31;;;;;;;12.33;7.30;;;;;;;6.76;69.87;97624.31;5051896;28;21101;-79
2022/11/28 04:26:16;;;;;;;11.57;7.73;;;;;;;6.40;69.57;97581.38;5086789;28;20739;-79
2022/11/28 04:28:48;;;;;;;11.97;7.43;;;;;;;6.70;69.89;97621.06;5068980;28;20584;-82
2022/11/28 04:31:17;;;;;;;12.07;7.10;;;;;;;6.59;70.23;97614.38;5068859;28;20194;-83
2022/11/28 04:33:51;;;;;;;13.30;8.50;;;;;;;6.66;70.74;97620.25;5087508;28;20192;-82
2022/11/28 04:36:22;;;;;;;13.90;7.67;;;;;;;6.46;71.69;97605.25;5069261;28;20540;-81
2022/11/28 04:39:00;;;;;;;13.10;7.93;;;;;;;6.67;70.73;97628.81;5085741;28;20187;-81
2022/11/28 04:41:39;;;;;;;11.93;8.13;;;;;;;6.61;70.71;97628.97;5080799;28;20197;-82
2022/11/28 04:44:22;;;;;;;13.70;7.50;;;;;;;6.45;70.89;97611.25;5068718;28;20333;-80
2022/11/28 04:46:54;;;;;;;13.90;8.60;;;;;;;6.49;70.34;97597.44;5000688;28;20508;-83
2022/11/28 04:49:28;;;;;;;15.87;9.43;;;;;;;6.46;71.66;97604.38;5061388;28;20223;-82
2022/11/28 04:52:13;;;;;;;13.37;8.33;;;;;;;6.49;71.64;97630.06;5062281;28;20737;-80
2022/11/28 04:55:03;;;;;;;13.63;8.43;;;;;;;6.53;71.07;97632.53;5074377;28;20597;-80
2022/11/28 04:58:02;;;;;;;15.10;8.77;;;;;;;6.40;72.55;97631.09;5083174;28;20292;-80
2022/11/28 05:00:35;;;;;;;12.33;8.13;;;;;;;6.24;72.85;97632.28;5086616;28;20625;-79
2022/11/28 05:03:04;;;;;;;14.37;9.40;;;;;;;6.26;73.13;97627.94;5051745;28;20194;-80
2022/11/28 05:05:43;;;;;;;14.10;8.87;;;;;;;6.25;73.41;97628.81;5067709;28;20225;-81
2022/11/28 05:08:18;;;;;;;16.47;8.87;;;;;;;5.95;73.74;97584.84;5087491;28;20297;-81
2022/11/28 05:10:46;;;;;;;14.70;8.60;;;;;;;5.87;74.38;97592.72;5067574;28;20231;-80
2022/11/28 05:13:14;;;;;;;14.87;8.93;;;;;;;6.26;74.86;97637.38;5069167;28;20218;-81
2022/11/28 05:15:41;;;;;;;17.20;9.97;;;;;;;6.19;73.98;97625.50;5082293;28;20292;-80
2022/11/28 05:18:11;;;;;;;15.83;10.03;;;;;;;6.21;74.20;97627.19;5068350;28;20226;-82
2022/11/28 05:20:39;;;;;;;15.93;10.23;;;;;;;6.08;75.34;97628.28;5051129;28;20247;-82
2022/11/28 05:23:07;;;;;;;17.60;11.70;;;;;;;6.12;74.93;97618.81;5079233;28;20259;-82
2022/11/28 05:25:37;;;;;;;17.90;11.23;;;;;;;6.10;74.92;97616.25;5068623;28;20295;-85
2022/11/28 05:28:05;;;;;;;15.87;10.00;;;;;;;6.10;75.77;97620.56;5068433;28;20195;-82
2022/11/28 05:30:36;;;;;;;20.60;11.53;;;;;;;6.06;75.11;97614.59;5068453;28;20229;-82
2022/11/28 05:33:10;;;;;;;17.70;11.23;;;;;;;6.04;75.20;97600.94;5069849;28;20189;-82
2022/11/28 05:35:40;;;;;;;16.50;9.40;;;;;;;6.04;75.60;97607.81;5069041;28;20195;-82
2022/11/28 05:38:15;;;;;;;16.73;10.47;;;;;;;6.18;75.64;97624.66;5069779;28;20196;-83
2022/11/28 05:40:43;;;;;;;18.93;10.67;;;;;;;6.30;74.94;97627.00;5052228;28;20551;-82
2022/11/28 05:43:12;;;;;;;18.93;11.03;;;;;;;6.30;75.69;97632.16;5068404;28;20354;-84
2022/11/28 05:45:43;;;;;;;16.83;10.67;;;;;;;6.37;74.51;97631.13;5018351;28;20194;-81
2022/11/28 05:48:11;;;;;;;19.13;11.83;;;;;;;6.17;75.58;97615.25;5086218;28;20203;-81
2022/11/28 05:50:43;;;;;;;22.87;13.33;;;;;;;6.27;76.45;97621.06;5086368;28;20223;-83
2022/11/28 05:53:19;;;;;;;19.93;11.00;;;;;;;6.24;76.82;97629.72;5069760;28;20194;-83
2022/11/28 05:55:50;;;;;;;19.40;10.73;;;;;;;6.11;76.90;97617.09;5035987;28;20189;-83
2022/11/28 05:58:25;;;;;;;16.80;10.73;;;;;;;6.12;78.76;97650.47;5052465;28;20196;-84
2022/11/28 06:01:19;;;;;;;19.33;11.10;;;;;;;6.06;77.75;97619.75;5068813;28;20664;-81
2022/11/28 06:03:51;;;;;;;15.87;9.60;;;;;;;6.17;77.54;97643.53;5072122;28;20226;-81
2022/11/28 06:06:21;;;;;;;20.83;12.07;;;;;;;6.24;77.85;97637.41;5071354;28;20307;-82
2022/11/28 06:08:51;;;;;;;18.90;10.47;;;;;;;5.98;77.74;97618.19;5072256;28;20197;-83
2022/11/28 06:11:28;;;;;;;17.23;9.77;;;;;;;6.27;77.74;97639.91;5090298;28;20220;-81
2022/11/28 06:14:04;;;;;;;18.27;10.40;;;;;;;6.27;76.89;97628.78;5075194;28;20194;-83
2022/11/28 06:16:42;;;;;;;13.90;9.83;;;;;;;6.05;77.38;97600.06;5075746;28;20276;-80
2022/11/28 06:19:11;;;;;;;16.60;10.40;;;;;;;6.18;77.73;97609.22;5072619;28;20285;-81
2022/11/28 06:21:40;;;;;;;15.50;9.87;;;;;;;6.21;77.73;97609.19;5072868;28;20200;-84
2022/11/28 06:24:12;;;;;;;18.00;10.43;;;;;;;6.36;76.52;97615.75;5073606;28;20188;-84
2022/11/28 06:26:42;;;;;;;15.23;9.80;;;;;;;6.45;76.12;97621.53;5088251;28;20230;-81
2022/11/28 06:29:17;;;;;;;16.10;10.37;;;;;;;6.37;76.99;97609.72;5073435;28;20581;-82
2022/11/28 06:31:46;;;;;;;29.77;17.90;;;;;;;6.45;76.71;97616.41;5091249;28;20249;-82
2022/11/28 06:34:27;;;;;;;20.87;12.40;;;;;;;6.44;76.35;97604.44;5058087;28;20197;-84
2022/11/28 06:37:08;;;;;;;18.20;11.60;;;;;;;6.30;77.41;97598.72;5057301;28;20205;-83
2022/11/28 06:39:36;;;;;;;18.93;12.07;;;;;;;6.32;77.20;97606.41;5089414;28;20332;-83
2022/11/28 06:42:19;;;;;;;16.87;10.43;;;;;;;6.26;77.34;97589.38;5071702;28;20194;-81
2022/11/28 06:44:49;;;;;;;17.40;11.57;;;;;;;6.40;77.49;97605.38;5072091;28;20280;-83
2022/11/28 06:47:25;;;;;;;19.30;11.70;;;;;;;6.45;77.69;97602.72;5071008;28;20265;-83
2022/11/28 06:50:07;;;;;;;18.23;11.13;;;;;;;6.22;77.45;97582.56;5069905;28;20227;-83
2022/11/28 06:52:44;;;;;;;17.07;10.17;;;;;;;6.29;79.00;97607.28;5072676;28;20200;-81
2022/11/28 06:55:38;;;;;;;15.20;10.07;;;;;;;6.23;77.99;97601.44;5059188;28;20282;-82
2022/11/28 06:58:19;;;;;;;14.27;9.27;;;;;;;6.25;77.29;97587.66;5057574;28;20260;-82
2022/11/28 07:00:50;;;;;;;16.07;9.77;;;;;;;6.22;77.95;97581.75;5055770;28;20665;-82
2022/11/28 07:03:22;;;;;;;18.53;10.73;;;;;;;6.46;77.64;97594.94;5038643;28;20275;-83
2022/11/28 07:06:20;;;;;;;16.80;10.37;;;;;;;6.46;77.72;97592.38;5046762;28;20234;-84
2022/11/28 07:08:55;;;;;;;19.00;11.57;;;;;;;6.63;77.41;97596.31;5068860;28;20197;-83
2022/11/28 07:11:43;;;;;;;23.90;12.43;;;;;;;6.50;77.08;97570.00;5067474;28;20218;-84
2022/11/28 07:14:11;;;;;;;16.90;10.73;;;;;;;6.48;78.56;97570.03;5051368;28;20288;-83
2022/11/28 07:16:44;;;;;;;14.93;9.60;;;;;;;6.46;77.00;97558.09;5051526;28;20230;-83
2022/11/28 07:19:14;;;;;;;17.43;10.10;;;;;;;6.62;76.64;97564.59;5067810;28;20210;-83
2022/11/28 07:21:52;;;;;;;19.53;12.23;;;;;;;6.70;76.58;97574.72;5050114;28;20634;-85
2022/11/28 07:24:22;;;;;;;23.43;13.73;;;;;;;6.68;77.06;97566.19;5067426;28;20195;-83
2022/11/28 07:26:57;;;;;;;21.20;12.33;;;;;;;6.56;76.39;97565.56;5051662;28;20294;-83
2022/11/28 07:29:42;;;;;;;18.80;11.80;;;;;;;6.82;77.42;97579.59;5050591;28;20661;-83
2022/11/28 07:32:35;;;;;;;16.80;9.43;;;;;;;6.76;76.01;97564.31;5038160;28;20567;-84
2022/11/28 07:35:07;;;;;;;13.00;8.73;;;;;;;6.82;75.75;97567.56;5034354;28;20206;-84
2022/11/28 07:37:38;;;;;;;14.80;10.10;;;;;;;6.91;76.22;97566.50;5067579;28;20191;-82
2022/11/28 07:40:08;;;;;;;13.53;9.07;;;;;;;7.02;75.94;97574.84;5050551;28;20561;-83
2022/11/28 07:42:40;;;;;;;18.90;11.10;;;;;;;7.03;76.28;97538.75;5068611;28;20197;-83
2022/11/28 07:45:11;;;;;;;15.73;10.77;;;;;;;7.24;76.22;97563.13;5069042;28;20179;-84
2022/11/28 07:47:57;;;;;;;27.03;12.83;;;;;;;7.20;75.02;97553.78;5067425;28;20262;-84
2022/11/28 07:50:33;;;;;;;27.83;13.70;;;;;;;7.41;75.29;97576.47;5050308;28;20226;-84
2022/11/28 07:53:06;;;;;;;25.27;14.20;;;;;;;7.46;74.60;97558.31;5033268;28;20193;-85
2022/11/28 07:55:48;;;;;;;28.33;13.60;;;;;;;7.44;74.70;97558.34;5067500;28;20290;-82
2022/11/28 07:58:20;;;;;;;25.83;11.77;;;;;;;7.40;73.72;97557.56;5067599;28;20191;-83
2022/11/28 08:00:53;;;;;;;9.33;5.80;;;;;;;7.18;70.44;97568.44;5001418;28;20698;-83
2022/11/28 08:03:22;;;;;;;7.10;4.90;;;;;;;7.37;69.73;97573.13;5049985;28;20311;-84
2022/11/28 08:05:59;;;;;;;7.57;5.87;;;;;;;7.54;69.10;97575.28;5051699;28;20234;-82
2022/11/28 08:08:40;;;;;;;9.27;5.60;;;;;;;7.52;68.80;97561.59;5050467;28;20233;-82
2022/11/28 08:11:15;;;;;;;8.87;6.20;;;;;;;7.36;71.40;97544.81;5054248;28;20220;-83
2022/11/28 08:13:44;;;;;;;14.30;7.23;;;;;;;7.63;71.46;97564.72;5052974;28;20202;-83
2022/11/28 08:16:19;;;;;;;10.70;6.67;;;;;;;7.82;71.09;97570.25;5087128;28;20191;-83
2022/11/28 08:18:52;;;;;;;7.37;4.20;;;;;;;7.75;68.32;97548.94;5069683;28;20269;-83
2022/11/28 08:21:27;;;;;;;10.90;6.47;;;;;;;7.85;67.44;97547.78;5069754;28;20187;-83
2022/11/28 08:24:02;;;;;;;4.63;3.50;;;;;;;7.74;65.18;97555.00;5051588;28;20279;-82
2022/11/28 08:26:46;;;;;;;3.97;3.37;;;;;;;7.74;64.84;97521.47;5068641;28;20287;-85
2022/11/28 08:29:25;;;;;;;5.27;3.87;;;;;;;7.92;66.58;97543.31;5087811;28;20207;-82
2022/11/28 08:32:03;;;;;;;7.50;4.30;;;;;;;7.80;67.28;97554.81;5052813;28;20330;-83
2022/11/28 08:34:35;;;;;;;5.23;3.43;;;;;;;7.77;66.77;97536.84;5067518;28;20203;-84
2022/11/28 08:37:27;;;;;;;4.83;3.47;;;;;;;7.79;66.48;97537.66;5057790;28;20209;-84
2022/11/28 08:40:09;;;;;;;4.90;3.70;;;;;;;7.72;65.17;97538.72;5035262;28;20743;-82
2022/11/28 08:42:47;;;;;;;3.23;2.90;;;;;;;7.29;64.02;97512.38;5053533;28;20277;-82
2022/11/28 08:46:29;;;;;;;3.50;2.87;;;;;;;7.33;65.56;97542.31;5067756;28;20268;-84
2022/11/28 08:50:14;;;;;;;4.87;2.90;;;;;;;7.48;65.17;97543.66;5079222;28;20209;-85
2022/11/28 08:52:51;;;;;;;5.67;3.80;;;;;;;7.48;65.52;97534.19;5052144;28;20657;-83
2022/11/28 08:55:35;;;;;;;6.47;4.33;;;;;;;7.56;67.09;97523.69;5053941;28;20299;-84
2022/11/28 08:58:14;;;;;;;8.50;5.30;;;;;;;7.51;67.68;97515.22;5069737;28;20205;-82
2022/11/28 09:00:45;;;;;;;8.53;5.10;;;;;;;7.58;68.38;97520.19;5073295;28;20194;-84
2022/11/28 09:03:21;;;;;;;8.13;5.63;;;;;;;7.66;68.20;97520.84;5047007;28;20226;-83
2022/11/28 09:05:54;;;;;;;8.17;5.20;;;;;;;7.50;67.92;97516.94;5089311;28;20240;-84
2022/11/28 09:08:31;;;;;;;6.50;4.60;;;;;;;7.61;68.68;97508.94;5054627;28;20197;-82
2022/11/28 09:11:01;;;;;;;8.00;4.97;;;;;;;7.55;68.38;97515.09;5068389;28;20230;-84
2022/11/28 09:13:59;;;;;;;7.37;5.17;;;;;;;7.67;68.19;97517.34;5070181;28;20697;-85
2022/11/28 09:16:31;;;;;;;8.20;5.63;;;;;;;7.64;68.26;97498.56;5069105;28;20407;-82
2022/11/28 09:19:02;;;;;;;8.30;6.50;;;;;;;7.55;69.51;97481.59;5067798;28;20612;-82
2022/11/28 09:21:46;;;;;;;10.37;6.43;;;;;;;7.52;69.39;97494.59;5052302;28;20609;-83
2022/11/28 09:24:25;;;;;;;7.07;5.43;;;;;;;7.47;69.27;97493.84;5066608;28;20293;-83
2022/11/28 09:26:54;;;;;;;6.83;5.67;;;;;;;7.68;68.76;97505.31;5051778;28;20203;-83
2022/11/28 09:29:30;;;;;;;9.87;6.83;;;;;;;7.69;69.23;97491.53;5069527;28;20221;-82
2022/11/28 09:32:17;;;;;;;5.97;4.47;;;;;;;7.77;68.83;97497.34;5070466;28;20216;-82
2022/11/28 09:34:51;;;;;;;7.83;5.20;;;;;;;7.69;69.33;97481.22;5068226;28;20706;-83
2022/11/28 09:37:23;;;;;;;9.43;5.53;;;;;;;7.61;70.17;97468.56;5089162;28;20195;-82
2022/11/28 09:39:54;;;;;;;10.03;6.13;;;;;;;7.54;70.20;97477.34;5071665;28;20200;-83
2022/11/28 09:42:50;;;;;;;8.03;5.80;;;;;;;7.62;70.04;97475.41;5075251;28;20188;-83
2022/11/28 09:45:27;;;;;;;8.37;4.90;;;;;;;7.70;70.08;97488.94;5072925;28;20204;-84
2022/11/28 09:48:33;;;;;;;7.97;5.33;;;;;;;7.65;68.84;97485.63;5074203;28;20194;-81
2022/11/28 09:51:42;;;;;;;7.33;5.10;;;;;;;7.30;69.19;97463.38;5058726;28;20315;-82
2022/11/28 09:54:36;;;;;;;7.93;5.80;;;;;;;7.25;70.30;97452.34;5089479;28;20230;-82
2022/11/28 09:57:19;;;;;;;11.87;8.47;;;;;;;7.38;69.84;97465.75;5089658;28;20280;-83
2022/11/28 09:59:48;;;;;;;12.40;7.13;;;;;;;7.37;69.68;97464.06;5040236;28;20718;-86
2022/11/28 10:02:21;;;;;;;11.83;7.73;;;;;;;7.33;70.51;97473.63;5055130;28;20200;-83
2022/11/28 10:05:15;;;;;;;10.63;6.60;;;;;;;7.41;69.98;97460.53;5089982;28;20195;-83
2022/11/28 10:08:03;;;;;;;7.87;4.90;;;;;;;7.42;69.86;97462.19;5033965;28;20229;-81
2022/11/28 10:11:18;;;;;;;7.43;5.00;;;;;;;7.50;69.15;97449.94;5051247;28;20204;-83
2022/11/28 10:14:22;;;;;;;6.33;4.33;;;;;;;7.50;68.47;97462.84;5070690;28;20230;-82
2022/11/28 10:17:20;;;;;;;4.43;3.30;;;;;;;7.48;68.07;97474.91;5051127;28;20245;-83
2022/11/28 10:20:07;;;;;;;7.07;4.97;;;;;;;7.37;68.60;97459.78;5050603;28;20233;-82
2022/11/28 10:22:57;;;;;;;7.70;5.07;;;;;;;7.57;69.75;97469.53;5046268;28;20287;-84
2022/11/28 10:25:55;;;;;;;4.20;2.93;;;;;;;7.50;67.47;97460.25;5050635;28;20215;-85
2022/11/28 10:28:46;;;;;;;5.67;3.00;;;;;;;7.42;67.03;97462.19;5035866;28;20204;-84
2022/11/28 10:31:54;;;;;;;5.00;3.43;;;;;;;7.49;67.59;97452.56;5022645;28;20315;-84
2022/11/28 10:34:46;;;;;;;3.67;3.27;;;;;;;7.56;66.90;97456.69;5021551;28;20220;-83
2022/11/28 10:37:20;;;;;;;4.33;3.60;;;;;;;7.57;66.32;97460.94;5050891;28;20221;-83
2022/11/28 10:39:56;;;;;;;6.67;4.50;;;;;;;7.48;67.60;97438.03;5045903;28;20195;-84
2022/11/28 10:42:47;;;;;;;5.37;3.87;;;;;;;7.58;66.39;97455.78;5033810;28;20295;-83
2022/11/28 10:46:03;;;;;;;4.07;3.13;;;;;;;7.42;65.42;97444.16;5033463;28;20210;-83
2022/11/28 10:48:52;;;;;;;4.80;3.30;;;;;;;7.40;65.66;97449.38;5066751;28;20287;-83
2022/11/28 10:51:50;;;;;;;3.77;3.17;;;;;;;7.43;64.96;97442.44;5050011;28;20851;-82
2022/11/28 10:54:50;;;;;;;8.03;4.43;;;;;;;7.31;66.67;97438.47;5050074;28;20183;-83
2022/11/28 10:58:06;;;;;;;9.17;5.87;;;;;;;7.40;67.53;97431.31;5068169;28;20231;-82
2022/11/28 11:00:40;;;;;;;9.90;7.17;;;;;;;7.49;68.29;97421.66;5049852;28;20212;-83
2022/11/28 11:03:16;;;;;;;8.53;5.70;;;;;;;7.24;67.36;97382.84;5050135;28;20203;-82
2022/11/28 11:05:46;;;;;;;9.87;6.43;;;;;;;7.55;69.63;97417.19;5025403;28;20323;-83
2022/11/28 11:08:34;;;;;;;6.97;5.23;;;;;;;7.73;68.88;97416.66;5056842;28;20652;-83
2022/11/28 11:11:38;;;;;;;4.50;3.67;;;;;;;7.72;67.66;97422.72;5078223;28;20222;-84
2022/11/28 11:14:13;;;;;;;5.87;4.07;;;;;;;7.56;66.31;97398.28;5041521;28;20200;-83
2022/11/28 11:16:59;;;;;;;5.70;3.90;;;;;;;7.60;67.87;97409.34;5090997;28;20186;-83
2022/11/28 11:19:39;;;;;;;4.43;3.60;;;;;;;7.55;66.29;97421.47;5072250;28;20199;-83
2022/11/28 11:22:27;;;;;;;6.47;3.60;;;;;;;7.38;66.74;97416.78;5056514;28;20218;-84
2022/11/28 11:25:18;;;;;;;4.67;3.57;;;;;;;7.32;65.72;97383.47;5055260;28;20205;-83
2022/11/28 11:28:01;;;;;;;5.33;3.90;;;;;;;7.32;67.41;97415.25;5070771;28;20224;-84
2022/11/28 11:30:38;;;;;;;5.17;3.87;;;;;;;7.33;67.90;97424.66;5063862;28;20196;-83
2022/11/28 11:33:16;;;;;;;6.60;4.90;;;;;;;7.37;68.92;97407.38;5070826;28;20893;-82
2022/11/28 11:35:52;;;;;;;11.53;6.47;;;;;;;7.51;69.76;97407.84;5071129;28;20218;-82
2022/11/28 11:38:19;;;;;;;5.83;5.13;;;;;;;7.49;69.90;97411.34;5069463;28;20188;-82
2022/11/28 11:40:48;;;;;;;8.17;5.63;;;;;;;7.56;69.57;97400.84;5090489;28;20368;-82
2022/11/28 11:43:36;;;;;;;7.20;4.77;;;;;;;7.79;68.29;97401.00;5056339;28;20196;-82
2022/11/28 11:46:16;;;;;;;8.63;6.17;;;;;;;7.90;69.89;97414.44;5056323;28;20206;-84
2022/11/28 11:48:57;;;;;;;6.33;4.90;;;;;;;7.72;69.29;97388.34;5037685;28;20286;-82
2022/11/28 11:51:35;;;;;;;5.20;4.20;;;;;;;7.94;69.69;97410.03;5070753;28;20788;-83
2022/11/28 11:54:18;;;;;;;6.60;4.97;;;;;;;7.88;69.81;97405.06;5088723;28;20263;-83
2022/11/28 11:56:56;;;;;;;6.07;4.90;;;;;;;7.69;69.43;97391.00;5051085;28;20207;-82
2022/11/28 12:00:14;;;;;;;6.27;4.97;;;;;;;7.79;68.89;97395.84;5038958;28;20214;-84
2022/11/28 12:02:56;;;;;;;6.70;4.43;;;;;;;7.74;68.74;97390.00;5068667;28;20286;-81
2022/11/28 12:05:49;;;;;;;4.43;4.03;;;;;;;7.72;69.62;97408.97;5069269;28;20325;-82
2022/11/28 12:08:53;;;;;;;8.70;4.27;;;;;;;7.67;69.26;97413.41;5072067;28;20218;-82
2022/11/28 12:11:42;;;;;;;8.10;4.73;;;;;;;7.66;67.89;97404.00;5056688;28;20207;-86
2022/11/28 12:14:32;;;;;;;7.50;4.73;;;;;;;7.58;68.18;97409.38;5068615;28;20655;-84
2022/11/28 12:17:24;;;;;;;4.80;4.30;;;;;;;7.67;68.21;97419.41;5068119;28;20218;-80
2022/11/28 12:20:47;;;;;;;6.67;4.37;;;;;;;7.63;68.44;97406.66;5068908;28;20196;-81
2022/11/28 12:24:12;;;;;;;6.97;5.67;;;;;;;7.70;68.45;97413.34;5055394;28;20644;-83
2022/11/28 12:27:28;;;;;;;4.70;3.50;;;;;;;7.66;67.36;97412.59;5023115;28;20214;-81
2022/11/28 12:30:24;;;;;;;7.57;5.47;;;;;;;7.71;68.29;97407.28;5069945;28;20252;-84
2022/11/28 12:37:55;;;;;;;5.60;4.80;;;;;;;7.64;67.74;97406.63;5068745;28;20995;-81
2022/11/28 12:40:59;;;;;;;8.83;5.43;;;;;;;7.63;70.01;97410.06;5037302;28;20198;-88